Flight Track Log - Related Links

Times and Time Zones

All times are in EDT time to prevent confusion due to time zone crossing. See the JZA8293 flight status page for this flight to view local times or setup timezone preferences in your user account.

Time Position Orientation Groundspeed Altitude Reporting Facility
EDT Latitude Longitude Course Direction KTS MPH feet Rate Location/Type
Sun 01:23:13 PM 49.8833 -97.2333 287° West 90 104 800  Level Winnipeg Center
Sun 01:24:13 PM 49.9167 -97.2833 316° Northwest 160 184 2,800 2,000 Climbing Winnipeg Center
Sun 01:25:13 PM 49.9500 -97.3333 316° Northwest 200 230 4,800 2,350 Climbing Winnipeg Center
Sun 01:26:13 PM 49.9667 -97.4333 285° West 230 265 7,500 2,500 Climbing Winnipeg Center
Sun 01:27:00 PM 50.0434 -97.8666 287° West  Level FlightAware Approximate
Sun 01:27:13 PM 49.9833 -97.5333 285° West 260 299 9,800  Level Winnipeg Center
Sun 01:28:00 PM 50.0756 -98.0277 287° West  Level FlightAware Approximate
Sun 01:28:14 PM 50.0167 -97.6667 291° West 310 357 11,000  Level Winnipeg Center
Sun 01:29:13 PM 50.0333 -97.8000 281° West 310 357 13,500 2,168 Climbing Winnipeg Center
Sun 01:30:13 PM 50.0667 -97.9333 291° West 320 368 15,300 1,700 Climbing Winnipeg Center
Sun 01:31:13 PM 50.0667 -98.0667 270° West 330 380 16,900 1,700 Climbing Winnipeg Center
Sun 01:32:13 PM 50.1000 -98.2000 291° West 330 380 18,700 1,600 Climbing Winnipeg Center
Sun 01:33:13 PM 50.1333 -98.3500 289° West 340 391 20,100 1,300 Climbing Winnipeg Center
Sun 01:34:13 PM 50.1667 -98.4833 291° West 350 403 21,300 1,150 Climbing Winnipeg Center
Sun 01:35:13 PM 50.2000 -98.6333 289° West 360 414 22,400 1,150 Climbing Winnipeg Center
Sun 01:36:13 PM 50.2333 -98.8000 287° West 360 414 23,600 950 Climbing Winnipeg Center
Sun 01:37:13 PM 50.2500 -98.9333 281° West 370 426 24,300 850 Climbing Winnipeg Center
Sun 01:38:13 PM 50.2833 -99.1167 286° West 370 426 25,300 850 Climbing Winnipeg Center
Sun 01:39:13 PM 50.3167 -99.2500 291° West 380 437 26,000 750 Climbing Winnipeg Center
Sun 01:40:13 PM 50.3333 -99.4000 280° West 380 437 26,800 650 Climbing Winnipeg Center
Sun 01:41:13 PM 50.3667 -99.5833 286° West 380 437 27,300 450 Climbing Winnipeg Center
Sun 01:42:13 PM 50.4000 -99.7500 287° West 390 449 27,700 950 Climbing Winnipeg Center
Sun 01:43:13 PM 50.4500 -99.9167 295° West 380 437 29,200 1,250 Climbing Winnipeg Center
Sun 01:44:13 PM 50.4833 -100.0500 291° West 370 426 30,200 850 Climbing Winnipeg Center
Sun 01:45:13 PM 50.5333 -100.2000 298° West 370 426 30,900 550 Climbing Winnipeg Center
Sun 01:46:13 PM 50.5667 -100.3333 292° West 360 414 31,300 450 Climbing Winnipeg Center
Sun 01:47:13 PM 50.6167 -100.5000 295° West 370 426 31,800 500 Climbing Winnipeg Center
Sun 01:48:13 PM 50.6500 -100.6333 292° West 370 426 32,300 550 Climbing Winnipeg Center
Sun 01:49:13 PM 50.6833 -100.7667 292° West 360 414 32,900 550 Climbing Winnipeg Center
Sun 01:50:13 PM 50.7333 -100.9000 301° West 360 414 33,400 400 Climbing Winnipeg Center
Sun 01:51:13 PM 50.7833 -101.0667 295° West 360 414 33,700 300 Climbing Winnipeg Center
Sun 01:52:13 PM 50.8167 -101.2000 292° West 360 414 34,000 150 Climbing Winnipeg Center
Sun 01:53:13 PM 50.8500 -101.3333 292° West 370 426 34,000  Level Winnipeg Center
Sun 01:54:13 PM 50.9000 -101.5000 295° West 380 437 34,000  Level Winnipeg Center
Sun 01:55:13 PM 50.9500 -101.6667 296° West 390 449 34,000  Level Winnipeg Center
Sun 01:56:13 PM 50.9833 -101.8333 288° West 400 460 34,000  Level Winnipeg Center
Sun 01:57:13 PM 51.0500 -102.0000 303° West 400 460 34,000  Level Winnipeg Center
Sun 01:58:13 PM 51.0833 -102.1667 288° West 400 460 34,000  Level Winnipeg Center
Sun 01:59:13 PM 51.1333 -102.3333 296° West 400 460 34,000  Level Winnipeg Center
Sun 02:00:13 PM 51.1500 -102.4667 281° West 380 437 34,000  Level Winnipeg Center
Sun 02:01:13 PM 51.2000 -102.6333 296° West 380 437 34,000  Level Winnipeg Center
Sun 02:02:13 PM 51.2333 -102.7667 292° West 380 437 34,000  Level Winnipeg Center
Sun 02:03:13 PM 51.2833 -102.9333 296° West 380 437 34,000  Level Winnipeg Center
Sun 02:04:13 PM 51.3167 -103.1000 288° West 390 449 34,000  Level Winnipeg Center
Sun 02:05:13 PM 51.3667 -103.2667 296° West 390 449 34,000  Level Winnipeg Center
Sun 02:06:13 PM 51.4000 -103.4333 288° West 400 460 34,000  Level Winnipeg Center
Sun 02:07:13 PM 51.4500 -103.5833 298° West 390 449 34,000  Level Winnipeg Center
Sun 02:08:13 PM 51.4833 -103.7667 286° West 390 449 34,000  Level Winnipeg Center
Sun 02:09:13 PM 51.5333 -103.9167 298° West 390 449 34,000  Level Winnipeg Center
Sun 02:10:13 PM 51.5667 -104.0833 288° West 390 449 34,000  Level Winnipeg Center
Sun 02:11:13 PM 51.6167 -104.2500 296° West 380 437 34,000  Level Winnipeg Center
Sun 02:12:13 PM 51.6500 -104.4000 290° West 380 437 34,000  Level Winnipeg Center
Sun 02:13:13 PM 51.7000 -104.5667 296° West 370 426 34,000  Level Winnipeg Center
Sun 02:14:13 PM 51.7167 -104.7000 281° West 370 426 34,000 -1,100 Level Winnipeg Center
Sun 02:15:13 PM 51.7500 -104.8667 288° West 370 426 31,800 -2,400 Descending Winnipeg Center
Sun 02:16:13 PM 51.8000 -105.0167 298° West 380 437 29,200 -2,600 Descending Winnipeg Center
Sun 02:17:13 PM 51.8333 -105.1667 290° West 370 426 26,600 -2,700 Descending Winnipeg Center
Sun 02:18:13 PM 51.8667 -105.3333 288° West 360 414 23,800 -2,700 Descending Winnipeg Center
Sun 02:19:13 PM 51.9000 -105.4667 292° West 360 414 21,200 -2,750 Descending Winnipeg Center
Sun 02:20:13 PM 51.9333 -105.6333 288° West 360 414 18,300 -2,750 Descending Winnipeg Center
Sun 02:21:13 PM 51.9833 -105.7833 298° West 350 403 15,700 -2,750 Descending Winnipeg Center
Sun 02:22:13 PM 52.0000 -105.9333 280° West 330 380 12,800 -2,700 Descending Winnipeg Center
Sun 02:23:13 PM 52.0333 -106.0500 295° West 320 368 10,300 -1,950 Descending Winnipeg Center
Sun 02:24:13 PM 52.0667 -106.1667 295° West 300 345 8,900 -1,550 Descending Winnipeg Center
Sun 02:25:13 PM 52.0833 -106.2667 285° West 250 288 7,200 -1,750 Descending Winnipeg Center
Sun 02:26:13 PM 52.1167 -106.3833 295° West 240 276 5,400 -1,500 Descending Winnipeg Center
Sun 02:27:13 PM 52.1167 -106.4667 270° West 220 253 4,200 -1,000 Descending Winnipeg Center
Sun 02:28:13 PM 52.1333 -106.5500 288° West 200 230 3,400 -800 Descending Winnipeg Center

Login

Don't have an account? Register now (free) for customized features, flight alerts, and more!